createdAt,value
2023-02-06T00:01:17.198Z,11.30
2023-02-06T00:03:44.099Z,8.85
2023-02-06T00:06:10.988Z,9.23
2023-02-06T00:08:38.099Z,8.57
2023-02-06T00:11:10.118Z,8.50
2023-02-06T00:13:37.079Z,5.85
2023-02-06T00:16:05.855Z,8.70
2023-02-06T00:18:32.803Z,7.43
2023-02-06T00:20:59.760Z,7.50
2023-02-06T00:23:27.486Z,7.30
2023-02-06T00:25:54.640Z,6.40
2023-02-06T00:28:21.983Z,8.77
2023-02-06T00:30:51.085Z,6.38
2023-02-06T00:33:21.216Z,13.18
2023-02-06T00:35:48.204Z,5.28
2023-02-06T00:38:18.161Z,8.10
2023-02-06T00:40:45.147Z,9.63
2023-02-06T00:43:12.210Z,7.97
2023-02-06T00:45:39.090Z,5.43
2023-02-06T00:48:06.205Z,8.27
2023-02-06T00:50:33.419Z,8.70
2023-02-06T00:53:00.324Z,7.28
2023-02-06T00:55:27.398Z,7.40
2023-02-06T00:57:54.331Z,7.93
2023-02-06T01:00:21.217Z,4.47
2023-02-06T01:02:50.732Z,8.02
2023-02-06T01:05:18.894Z,5.78
2023-02-06T01:07:45.839Z,7.50
2023-02-06T01:10:15.295Z,9.95
2023-02-06T01:12:42.768Z,7.47
2023-02-06T01:15:11.656Z,7.18
2023-02-06T01:17:40.201Z,8.02
2023-02-06T01:20:09.912Z,7.47
2023-02-06T01:22:37.475Z,6.32
2023-02-06T01:25:05.661Z,8.88
2023-02-06T01:27:34.777Z,6.28
2023-02-06T01:30:01.974Z,8.05
2023-02-06T01:32:28.853Z,12.10
2023-02-06T01:34:55.847Z,8.27
2023-02-06T01:37:22.736Z,7.10
2023-02-06T01:39:49.603Z,4.18
2023-02-06T01:42:16.684Z,7.85
2023-02-06T01:44:43.625Z,6.10
2023-02-06T01:47:12.038Z,7.00
2023-02-06T01:49:41.319Z,12.32
2023-02-06T01:52:24.921Z,8.43
2023-02-06T01:54:56.975Z,6.20
2023-02-06T01:57:24.669Z,6.72
2023-02-06T01:59:57.855Z,6.35
2023-02-06T02:02:26.838Z,5.07
2023-02-06T02:04:55.096Z,5.80
2023-02-06T02:07:28.789Z,5.97
2023-02-06T02:09:55.911Z,8.85
2023-02-06T02:12:23.018Z,4.93
2023-02-06T02:14:52.507Z,7.07
2023-02-06T02:17:55.081Z,5.63
2023-02-06T02:20:32.927Z,7.85
2023-02-06T02:23:24.032Z,7.72
2023-02-06T02:28:29.898Z,3.30
2023-02-06T02:31:25.896Z,6.78
2023-02-06T02:34:30.606Z,5.72
2023-02-06T02:37:06.464Z,4.38
2023-02-06T02:40:23.773Z,6.65
2023-02-06T02:43:19.332Z,4.00
2023-02-06T02:46:00.869Z,4.25
2023-02-06T02:48:36.845Z,4.78
2023-02-06T02:51:05.503Z,6.75
2023-02-06T02:53:32.384Z,5.32
2023-02-06T02:56:00.589Z,5.03
2023-02-06T02:58:32.830Z,5.05
2023-02-06T03:01:06.544Z,5.70
2023-02-06T03:03:37.623Z,5.15
2023-02-06T03:06:40.620Z,3.38
2023-02-06T03:09:19.789Z,6.80
2023-02-06T03:12:12.934Z,5.38
2023-02-06T03:15:04.036Z,3.10
2023-02-06T03:20:05.404Z,5.57
2023-02-06T03:22:36.121Z,5.05
2023-02-06T03:25:14.382Z,7.85
2023-02-06T03:27:43.455Z,4.53
2023-02-06T03:30:15.140Z,5.43
2023-02-06T03:32:46.986Z,4.93
2023-02-06T03:35:22.314Z,4.78
2023-02-06T03:37:50.295Z,4.65
2023-02-06T03:40:18.333Z,4.03
2023-02-06T03:42:50.409Z,5.38
2023-02-06T03:45:30.977Z,3.53
2023-02-06T03:48:04.488Z,5.18
2023-02-06T03:50:33.618Z,5.35
2023-02-06T03:53:03.108Z,9.00
2023-02-06T03:55:30.235Z,6.40
2023-02-06T03:58:04.046Z,6.32
2023-02-06T04:00:31.894Z,10.70
2023-02-06T04:03:00.041Z,13.18
2023-02-06T04:05:27.957Z,17.10
2023-02-06T04:07:56.768Z,20.40
2023-02-06T04:10:26.309Z,18.10
2023-02-06T04:12:54.953Z,19.50
2023-02-06T04:15:22.287Z,18.23
2023-02-06T04:17:59.829Z,16.48
2023-02-06T04:20:29.647Z,15.88
2023-02-06T04:22:57.424Z,20.85
2023-02-06T04:25:24.488Z,18.52
2023-02-06T04:27:51.530Z,15.00
2023-02-06T04:30:20.078Z,13.40
2023-02-06T04:32:47.092Z,23.08
2023-02-06T04:35:13.988Z,14.05
2023-02-06T04:37:40.879Z,14.63
2023-02-06T04:40:08.115Z,15.73
2023-02-06T04:42:35.354Z,15.50
2023-02-06T04:45:02.293Z,11.88
2023-02-06T04:47:29.341Z,12.15
2023-02-06T04:49:56.252Z,10.07
2023-02-06T04:52:23.191Z,8.82
2023-02-06T04:54:50.088Z,7.47
2023-02-06T04:57:17.093Z,11.07
2023-02-06T04:59:44.037Z,10.65
2023-02-06T05:02:11.027Z,8.90
2023-02-06T05:04:40.674Z,8.95
2023-02-06T05:07:07.572Z,10.77
2023-02-06T05:09:34.466Z,12.93
2023-02-06T05:12:01.468Z,12.85
2023-02-06T05:14:28.479Z,12.73
2023-02-06T05:16:55.867Z,13.45
2023-02-06T05:19:22.883Z,19.77
2023-02-06T05:21:49.954Z,20.55
2023-02-06T05:24:17.653Z,22.55
2023-02-06T05:26:49.230Z,21.15
2023-02-06T05:29:16.199Z,20.50
2023-02-06T05:31:43.219Z,20.75
2023-02-06T05:34:10.884Z,23.58
2023-02-06T05:36:38.080Z,20.50
2023-02-06T05:39:05.119Z,19.73
2023-02-06T05:41:32.108Z,20.90
2023-02-06T05:44:03.295Z,15.02
2023-02-06T05:46:30.290Z,15.45
2023-02-06T05:48:58.258Z,15.93
2023-02-06T05:51:25.233Z,19.30
2023-02-06T05:53:52.118Z,18.60
2023-02-06T05:56:19.003Z,20.65
2023-02-06T05:58:45.936Z,22.52
2023-02-06T06:01:13.611Z,20.05
2023-02-06T06:03:40.548Z,18.98
2023-02-06T06:06:07.990Z,19.02
2023-02-06T06:08:35.507Z,15.73
2023-02-06T06:11:03.686Z,18.60
2023-02-06T06:13:30.882Z,19.77
2023-02-06T06:15:57.837Z,18.67
2023-02-06T06:18:24.777Z,19.25
2023-02-06T06:20:51.791Z,17.65
2023-02-06T06:23:18.988Z,18.13
2023-02-06T06:25:49.762Z,21.63
2023-02-06T06:28:16.987Z,23.60
2023-02-06T06:30:44.408Z,25.75
2023-02-06T06:33:11.862Z,29.83
2023-02-06T06:35:38.834Z,29.40
2023-02-06T06:38:05.905Z,28.55
2023-02-06T06:40:32.825Z,31.20
2023-02-06T06:43:00.264Z,24.60
2023-02-06T06:45:27.384Z,29.25
2023-02-06T06:47:54.423Z,37.13
2023-02-06T06:50:21.386Z,34.00
2023-02-06T06:52:48.271Z,35.72
2023-02-06T06:55:15.145Z,35.67
2023-02-06T06:57:42.124Z,29.70
2023-02-06T07:00:09.829Z,28.00
2023-02-06T07:02:36.744Z,23.92
2023-02-06T07:05:05.112Z,22.80
2023-02-06T07:07:32.185Z,25.25
2023-02-06T07:09:59.906Z,19.67
2023-02-06T07:12:28.238Z,16.45
2023-02-06T07:14:55.211Z,15.55
2023-02-06T07:17:22.178Z,23.48
2023-02-06T07:19:51.563Z,25.08
2023-02-06T07:22:21.510Z,24.52
2023-02-06T07:24:48.807Z,32.60
2023-02-06T07:27:15.747Z,29.50
2023-02-06T07:29:42.689Z,23.65
2023-02-06T07:32:10.363Z,19.67
2023-02-06T07:34:37.947Z,19.13
2023-02-06T07:37:05.323Z,18.77
2023-02-06T07:39:32.420Z,20.15
2023-02-06T07:41:59.366Z,21.35
2023-02-06T07:44:26.280Z,16.55
2023-02-06T07:46:53.224Z,17.92
2023-02-06T07:49:20.106Z,19.33
2023-02-06T07:51:47.073Z,16.98
2023-02-06T07:54:14.320Z,21.05
2023-02-06T07:56:41.282Z,22.75
2023-02-06T07:59:08.313Z,24.13
2023-02-06T08:01:35.669Z,26.38
2023-02-06T08:04:03.255Z,26.58
2023-02-06T08:06:30.460Z,23.38
2023-02-06T08:08:57.686Z,25.35
2023-02-06T08:11:27.790Z,17.38
2023-02-06T08:13:54.693Z,12.13
2023-02-06T08:16:23.741Z,12.25
2023-02-06T08:18:50.836Z,9.93
2023-02-06T08:21:21.644Z,18.00
2023-02-06T08:23:57.746Z,10.65
2023-02-06T08:26:25.908Z,11.48
2023-02-06T08:28:54.249Z,9.98
2023-02-06T08:31:36.214Z,8.70
2023-02-06T08:34:04.351Z,7.30
2023-02-06T08:36:32.147Z,12.27
2023-02-06T08:38:59.976Z,8.10
2023-02-06T08:41:32.710Z,10.80
2023-02-06T08:44:02.844Z,11.43
2023-02-06T08:46:32.498Z,9.20
2023-02-06T08:49:06.087Z,8.27
2023-02-06T08:51:34.409Z,9.63
2023-02-06T08:54:08.449Z,10.50
2023-02-06T08:56:36.819Z,12.73
2023-02-06T08:59:05.360Z,8.75
2023-02-06T09:01:34.363Z,7.72
2023-02-06T09:04:08.043Z,7.43
2023-02-06T09:06:42.654Z,10.20
2023-02-06T09:09:10.998Z,9.55
2023-02-06T09:11:38.864Z,15.00
2023-02-06T09:14:07.698Z,11.20
2023-02-06T09:16:35.828Z,7.07
2023-02-06T09:19:02.954Z,5.18
2023-02-06T09:21:32.210Z,10.32
2023-02-06T09:24:02.781Z,8.20
2023-02-06T09:26:58.058Z,13.98
2023-02-06T09:29:29.374Z,8.30
2023-02-06T09:31:58.175Z,7.32
2023-02-06T09:34:29.361Z,9.18
2023-02-06T09:36:56.989Z,10.02
2023-02-06T09:39:24.759Z,9.40
2023-02-06T09:42:10.866Z,8.25
2023-02-06T09:44:43.961Z,10.63
2023-02-06T09:47:19.944Z,14.93
2023-02-06T09:49:53.700Z,9.63
2023-02-06T09:52:20.940Z,9.60
2023-02-06T09:55:09.653Z,8.80
2023-02-06T09:57:42.628Z,10.00
2023-02-06T10:00:31.168Z,11.77
2023-02-06T10:03:09.728Z,14.82
2023-02-06T10:06:10.464Z,12.93
2023-02-06T10:08:56.912Z,8.63
2023-02-06T10:12:04.128Z,8.32
2023-02-06T10:14:46.966Z,16.63
2023-02-06T10:17:23.654Z,10.32
2023-02-06T10:19:53.436Z,15.30
2023-02-06T10:22:40.697Z,9.05
2023-02-06T10:25:25.892Z,7.90
2023-02-06T10:27:59.351Z,14.95
2023-02-06T10:31:04.386Z,12.63
2023-02-06T10:34:03.833Z,17.88
2023-02-06T10:36:37.276Z,18.83
2023-02-06T10:39:34.676Z,25.05
2023-02-06T10:42:17.161Z,26.35
2023-02-06T10:45:20.175Z,27.55
2023-02-06T10:47:55.228Z,24.95
2023-02-06T10:50:38.059Z,28.40
2023-02-06T10:53:39.998Z,35.13
2023-02-06T10:56:12.678Z,25.70
2023-02-06T10:58:46.776Z,24.92
2023-02-06T11:01:25.415Z,22.38
2023-02-06T11:04:19.484Z,25.05
2023-02-06T11:06:47.025Z,27.52
2023-02-06T11:09:15.233Z,23.50
2023-02-06T11:11:48.641Z,18.05
2023-02-06T11:14:32.654Z,16.42
2023-02-06T11:17:01.521Z,11.30
2023-02-06T11:19:42.709Z,11.23
2023-02-06T11:24:39.017Z,15.35
2023-02-06T11:27:21.185Z,12.50
2023-02-06T11:29:52.169Z,11.73
2023-02-06T11:32:41.592Z,11.38
2023-02-06T11:35:20.839Z,12.18
2023-02-06T11:37:54.235Z,8.00
2023-02-06T11:40:22.699Z,16.35
2023-02-06T11:43:12.309Z,15.75
2023-02-06T11:45:41.563Z,11.07
2023-02-06T11:48:34.336Z,8.27
2023-02-06T11:51:01.248Z,8.02
2023-02-06T11:53:29.180Z,9.98
2023-02-06T11:56:21.157Z,12.43
2023-02-06T11:59:17.916Z,11.88
2023-02-06T12:01:47.157Z,13.05
2023-02-06T12:04:28.636Z,13.18
2023-02-06T12:07:01.946Z,8.95
2023-02-06T12:09:29.146Z,8.73
2023-02-06T12:12:22.937Z,12.30
2023-02-06T12:15:29.476Z,9.07
2023-02-06T12:17:57.876Z,10.50
2023-02-06T12:20:33.270Z,11.27
2023-02-06T12:23:28.632Z,16.00
2023-02-06T12:26:00.285Z,14.52
2023-02-06T12:28:45.629Z,13.63
2023-02-06T12:31:55.421Z,16.73
2023-02-06T12:34:29.122Z,11.05
2023-02-06T12:37:09.675Z,8.55
2023-02-06T12:39:38.242Z,17.30
2023-02-06T12:42:32.541Z,7.75
2023-02-06T12:44:59.760Z,15.07
2023-02-06T12:47:36.465Z,12.00
2023-02-06T12:50:21.816Z,10.50
2023-02-06T12:52:58.360Z,12.30
2023-02-06T12:55:34.814Z,11.75
2023-02-06T12:58:03.210Z,9.60
2023-02-06T13:00:52.770Z,10.27
2023-02-06T13:03:31.212Z,11.32
2023-02-06T13:06:16.421Z,15.32
2023-02-06T13:09:07.430Z,7.90
2023-02-06T13:11:39.248Z,15.85
2023-02-06T13:14:17.856Z,12.45
2023-02-06T13:16:51.284Z,17.33
2023-02-06T13:19:29.047Z,10.48
2023-02-06T13:22:13.731Z,11.60
2023-02-06T13:24:42.912Z,12.75
2023-02-06T13:27:12.829Z,12.32
2023-02-06T13:29:53.072Z,17.05
2023-02-06T13:32:24.218Z,16.20
2023-02-06T13:34:53.942Z,18.02
2023-02-06T13:37:39.124Z,13.40
2023-02-06T13:40:24.485Z,10.30
2023-02-06T13:43:19.916Z,13.52
2023-02-06T13:45:58.732Z,5.60
2023-02-06T13:48:31.386Z,15.32
2023-02-06T13:51:20.184Z,11.65
2023-02-06T13:54:15.452Z,13.18
2023-02-06T13:56:45.620Z,16.50
2023-02-06T13:59:25.854Z,10.43
2023-02-06T14:01:55.787Z,9.77
2023-02-06T14:04:26.695Z,16.98
2023-02-06T14:10:05.788Z,11.90
2023-02-06T14:12:44.883Z,12.63
2023-02-06T14:15:54.491Z,13.95
2023-02-06T14:18:36.960Z,11.30
2023-02-06T14:21:25.430Z,9.00
2023-02-06T14:24:04.748Z,10.30
2023-02-06T14:27:01.978Z,12.60
2023-02-06T14:29:55.536Z,12.88
2023-02-06T14:32:54.188Z,14.10
2023-02-06T14:35:36.186Z,18.38
2023-02-06T14:38:28.541Z,11.07
2023-02-06T14:40:57.967Z,17.17
2023-02-06T14:43:29.364Z,10.93
2023-02-06T14:46:07.629Z,13.80
2023-02-06T14:48:41.765Z,15.25
2023-02-06T14:51:18.368Z,16.83
2023-02-06T14:54:05.392Z,9.38
2023-02-06T14:56:38.116Z,12.82
2023-02-06T14:59:16.482Z,21.60
2023-02-06T15:01:48.770Z,14.02
2023-02-06T15:04:18.494Z,15.23
2023-02-06T15:06:59.253Z,15.40
2023-02-06T15:09:32.217Z,16.55
2023-02-06T15:12:02.459Z,18.58
2023-02-06T15:14:32.513Z,16.88
2023-02-06T15:17:01.075Z,17.83
2023-02-06T15:19:30.910Z,17.98
2023-02-06T15:22:13.560Z,18.55
2023-02-06T15:25:14.562Z,13.10
2023-02-06T15:27:43.150Z,12.13
2023-02-06T15:30:20.851Z,12.90
2023-02-06T15:32:50.655Z,16.95
2023-02-06T15:35:24.556Z,18.40
2023-02-06T15:37:53.470Z,16.45
2023-02-06T15:40:48.051Z,16.02
2023-02-06T15:43:25.621Z,11.55
2023-02-06T15:45:58.733Z,17.35
2023-02-06T15:48:34.398Z,23.05
2023-02-06T15:51:38.597Z,16.45
2023-02-06T15:54:26.064Z,12.98
2023-02-06T15:57:07.796Z,13.32
2023-02-06T15:59:40.040Z,17.45
2023-02-06T16:02:08.075Z,19.17
2023-02-06T16:04:42.939Z,20.98
2023-02-06T16:07:22.784Z,12.10
2023-02-06T16:10:06.204Z,15.98
2023-02-06T16:12:36.438Z,11.55
2023-02-06T16:15:29.938Z,20.85
2023-02-06T16:18:01.862Z,12.55
2023-02-06T16:20:42.699Z,11.52
2023-02-06T16:23:20.346Z,17.05
2023-02-06T16:25:49.608Z,23.30
2023-02-06T16:28:27.343Z,20.40
2023-02-06T16:30:57.452Z,18.88
2023-02-06T16:33:42.792Z,22.52
2023-02-06T16:36:15.031Z,17.95
2023-02-06T16:38:48.237Z,22.05
2023-02-06T16:41:37.181Z,18.75
2023-02-06T16:44:10.170Z,18.40
2023-02-06T16:46:37.171Z,20.20
2023-02-06T16:49:20.150Z,15.38
2023-02-06T16:51:51.598Z,14.15
2023-02-06T16:54:27.264Z,14.00
2023-02-06T16:56:55.784Z,16.40
2023-02-06T16:59:23.139Z,14.75
2023-02-06T17:01:50.042Z,21.75
2023-02-06T17:04:17.034Z,21.83
2023-02-06T17:06:44.081Z,20.02
2023-02-06T17:09:14.866Z,28.55
2023-02-06T17:11:41.825Z,60.65
2023-02-06T17:14:11.229Z,18.55
2023-02-06T17:16:38.497Z,27.08
2023-02-06T17:19:05.485Z,16.92
2023-02-06T17:21:33.312Z,23.77
2023-02-06T17:24:00.415Z,19.50
2023-02-06T17:26:27.751Z,18.60
2023-02-06T17:28:55.055Z,21.23
2023-02-06T17:31:22.123Z,20.20
2023-02-06T17:33:49.677Z,21.70
2023-02-06T17:36:24.713Z,28.05
2023-02-06T17:38:52.063Z,49.50
2023-02-06T17:41:19.146Z,51.45
2023-02-06T17:43:46.021Z,58.72
2023-02-06T17:46:14.249Z,63.75
2023-02-06T17:48:43.337Z,62.53
2023-02-06T17:51:11.468Z,54.33
2023-02-06T17:53:38.451Z,56.63
2023-02-06T17:56:07.501Z,61.13
2023-02-06T17:58:35.105Z,56.40
2023-02-06T18:01:02.614Z,57.83
2023-02-06T18:03:29.594Z,53.92
2023-02-06T18:05:58.367Z,52.13
2023-02-06T18:08:25.539Z,53.78
2023-02-06T18:10:54.044Z,51.42
2023-02-06T18:13:21.585Z,54.05
2023-02-06T18:15:58.218Z,50.58
2023-02-06T18:18:26.245Z,60.72
2023-02-06T18:20:53.231Z,52.17
2023-02-06T18:23:23.065Z,61.75
2023-02-06T18:25:50.195Z,65.25
2023-02-06T18:28:18.289Z,58.78
2023-02-06T18:30:45.622Z,50.88
2023-02-06T18:33:14.242Z,43.20
2023-02-06T18:35:49.028Z,41.03
2023-02-06T18:38:16.756Z,32.05
2023-02-06T18:40:47.801Z,27.10
2023-02-06T18:46:31.269Z,20.48
2023-02-06T18:48:58.285Z,15.27
2023-02-06T18:51:25.606Z,20.58
2023-02-06T18:53:53.374Z,20.58
2023-02-06T18:56:20.322Z,20.48
2023-02-06T18:58:47.225Z,19.35
2023-02-06T19:01:16.996Z,21.70
2023-02-06T19:03:44.054Z,19.17
2023-02-06T19:06:23.202Z,23.40
2023-02-06T19:08:50.282Z,22.85
2023-02-06T19:11:17.353Z,14.88
2023-02-06T19:13:44.659Z,14.73
2023-02-06T19:16:14.827Z,24.35
2023-02-06T19:18:44.444Z,18.33
2023-02-06T19:21:15.870Z,24.77
2023-02-06T19:23:43.705Z,17.00
2023-02-06T19:26:13.413Z,19.63
2023-02-06T19:28:41.376Z,15.45
2023-02-06T19:31:10.012Z,17.00
2023-02-06T19:33:39.425Z,16.13
2023-02-06T19:36:19.342Z,24.75
2023-02-06T19:38:47.115Z,12.98
2023-02-06T19:41:24.026Z,24.77
2023-02-06T19:44:14.737Z,13.85
2023-02-06T19:49:29.204Z,19.02
2023-02-06T19:54:23.289Z,16.30
2023-02-06T19:56:50.297Z,15.45
2023-02-06T19:59:21.657Z,15.75
2023-02-06T20:01:51.376Z,8.32
2023-02-06T20:04:20.088Z,14.95
2023-02-06T20:06:47.465Z,16.55
2023-02-06T20:09:15.737Z,20.05
2023-02-06T20:11:42.928Z,17.92
2023-02-06T20:14:10.949Z,16.00
2023-02-06T20:16:39.733Z,17.80
2023-02-06T20:19:27.872Z,13.85
2023-02-06T20:21:58.214Z,14.52
2023-02-06T20:24:28.895Z,12.73
2023-02-06T20:26:58.929Z,15.40
2023-02-06T20:29:37.818Z,15.65
2023-02-06T20:32:06.332Z,17.08
2023-02-06T20:34:33.967Z,19.55
2023-02-06T20:37:00.901Z,18.55
2023-02-06T20:39:28.803Z,10.90
2023-02-06T20:41:55.874Z,10.32
2023-02-06T20:44:22.907Z,17.48
2023-02-06T20:46:49.970Z,19.25
2023-02-06T20:49:20.274Z,17.63
2023-02-06T20:51:49.306Z,18.80
2023-02-06T20:54:17.844Z,13.77
2023-02-06T20:56:45.475Z,13.23
2023-02-06T20:59:14.813Z,10.32
2023-02-06T21:01:42.784Z,16.83
2023-02-06T21:04:11.813Z,11.45
2023-02-06T21:06:39.599Z,22.67
2023-02-06T21:09:08.852Z,17.58
2023-02-06T21:11:47.984Z,15.45
2023-02-06T21:14:15.444Z,14.18
2023-02-06T21:16:43.832Z,11.43
2023-02-06T21:19:14.717Z,21.42
2023-02-06T21:21:44.904Z,17.33
2023-02-06T21:24:13.133Z,19.30
2023-02-06T21:26:40.039Z,17.02
2023-02-06T21:29:07.857Z,16.90
2023-02-06T21:31:38.432Z,21.00
2023-02-06T21:39:04.964Z,13.88
2023-02-06T21:41:33.167Z,18.67
2023-02-06T21:44:00.254Z,21.17
2023-02-06T21:46:29.972Z,14.93
2023-02-06T21:48:57.011Z,16.75
2023-02-06T21:51:24.228Z,17.10
2023-02-06T21:53:51.401Z,17.88
2023-02-06T21:56:21.611Z,11.25
2023-02-06T21:58:49.421Z,23.17
2023-02-06T22:01:18.910Z,27.23
2023-02-06T22:03:46.871Z,17.58
2023-02-06T22:06:14.677Z,19.63
2023-02-06T22:08:44.629Z,19.85
2023-02-06T22:11:20.364Z,17.10
2023-02-06T22:13:48.203Z,17.10
2023-02-06T22:16:17.784Z,17.95
2023-02-06T22:18:44.825Z,25.23
2023-02-06T22:21:14.599Z,21.63
2023-02-06T22:23:42.524Z,15.80
2023-02-06T22:26:12.033Z,18.77
2023-02-06T22:28:40.148Z,24.83
2023-02-06T22:31:09.265Z,19.30
2023-02-06T22:33:36.487Z,16.30
2023-02-06T22:36:08.955Z,20.10
2023-02-06T22:38:36.479Z,28.88
2023-02-06T22:41:06.420Z,21.55
2023-02-06T22:43:36.208Z,18.85
2023-02-06T22:46:04.002Z,21.77
2023-02-06T22:48:31.058Z,18.40
2023-02-06T22:51:04.937Z,18.40
2023-02-06T22:53:32.009Z,12.20
2023-02-06T22:56:20.038Z,13.98
2023-02-06T22:58:48.069Z,19.98
2023-02-06T23:01:15.895Z,16.13
2023-02-06T23:03:43.101Z,13.45
2023-02-06T23:06:11.681Z,13.88
2023-02-06T23:08:38.935Z,12.73
2023-02-06T23:11:06.756Z,17.70
2023-02-06T23:13:34.505Z,18.58
2023-02-06T23:16:01.725Z,20.35
2023-02-06T23:18:29.691Z,17.88
2023-02-06T23:20:59.100Z,20.63
2023-02-06T23:23:26.231Z,14.93
2023-02-06T23:25:53.530Z,23.40
2023-02-06T23:28:21.877Z,22.00
2023-02-06T23:30:49.043Z,17.58
2023-02-06T23:33:16.038Z,13.20
2023-02-06T23:35:43.377Z,13.05
2023-02-06T23:38:11.419Z,15.50
2023-02-06T23:40:38.541Z,23.20
2023-02-06T23:43:06.457Z,25.73
2023-02-06T23:45:34.078Z,16.27
2023-02-06T23:48:01.004Z,22.85
2023-02-06T23:50:28.196Z,17.05
2023-02-06T23:52:55.147Z,26.67
2023-02-06T23:55:24.877Z,21.35
2023-02-06T23:57:51.820Z,21.55
